sensor_id;sensor_type;location;lat;lon;timestamp;P1;durP1;ratioP1;P2;durP2;ratioP2
3297;SDS011;1661;53.572;10.174;2022-10-12T00:00:19;5.57;;;5.07;;
3297;SDS011;1661;53.572;10.174;2022-10-12T00:02:46;5.60;;;4.97;;
3297;SDS011;1661;53.572;10.174;2022-10-12T00:05:13;10.40;;;5.13;;
3297;SDS011;1661;53.572;10.174;2022-10-12T00:07:39;12.80;;;6.60;;
3297;SDS011;1661;53.572;10.174;2022-10-12T00:10:06;11.70;;;6.00;;
3297;SDS011;1661;53.572;10.174;2022-10-12T00:12:33;8.90;;;5.30;;
3297;SDS011;1661;53.572;10.174;2022-10-12T00:15:00;9.73;;;5.10;;
3297;SDS011;1661;53.572;10.174;2022-10-12T00:17:28;7.00;;;5.90;;
3297;SDS011;1661;53.572;10.174;2022-10-12T00:19:55;6.60;;;5.50;;
3297;SDS011;1661;53.572;10.174;2022-10-12T00:22:22;7.07;;;5.97;;
3297;SDS011;1661;53.572;10.174;2022-10-12T00:24:51;7.60;;;4.77;;
3297;SDS011;1661;53.572;10.174;2022-10-12T00:27:17;10.43;;;6.17;;
3297;SDS011;1661;53.572;10.174;2022-10-12T00:29:44;5.27;;;4.77;;
3297;SDS011;1661;53.572;10.174;2022-10-12T00:32:11;8.07;;;4.80;;
3297;SDS011;1661;53.572;10.174;2022-10-12T00:34:39;6.00;;;5.23;;
3297;SDS011;1661;53.572;10.174;2022-10-12T00:37:05;11.43;;;4.67;;
3297;SDS011;1661;53.572;10.174;2022-10-12T00:39:32;10.07;;;6.20;;
3297;SDS011;1661;53.572;10.174;2022-10-12T00:41:59;10.93;;;5.67;;
3297;SDS011;1661;53.572;10.174;2022-10-12T00:44:36;14.57;;;4.20;;
3297;SDS011;1661;53.572;10.174;2022-10-12T00:47:07;7.33;;;5.00;;
3297;SDS011;1661;53.572;10.174;2022-10-12T00:49:43;8.47;;;5.57;;
3297;SDS011;1661;53.572;10.174;2022-10-12T00:52:12;6.33;;;5.20;;
3297;SDS011;1661;53.572;10.174;2022-10-12T00:54:41;10.43;;;5.33;;
3297;SDS011;1661;53.572;10.174;2022-10-12T00:57:11;8.93;;;5.30;;
3297;SDS011;1661;53.572;10.174;2022-10-12T00:59:41;8.00;;;5.13;;
3297;SDS011;1661;53.572;10.174;2022-10-12T01:02:14;7.63;;;4.60;;
3297;SDS011;1661;53.572;10.174;2022-10-12T01:04:41;10.90;;;5.83;;
3297;SDS011;1661;53.572;10.174;2022-10-12T01:07:10;9.80;;;5.50;;
3297;SDS011;1661;53.572;10.174;2022-10-12T01:09:37;9.40;;;5.50;;
3297;SDS011;1661;53.572;10.174;2022-10-12T01:12:04;7.23;;;5.53;;
3297;SDS011;1661;53.572;10.174;2022-10-12T01:14:33;7.90;;;5.67;;
3297;SDS011;1661;53.572;10.174;2022-10-12T01:17:01;7.63;;;4.13;;
3297;SDS011;1661;53.572;10.174;2022-10-12T01:19:41;8.80;;;4.50;;
3297;SDS011;1661;53.572;10.174;2022-10-12T01:22:27;5.73;;;4.40;;
3297;SDS011;1661;53.572;10.174;2022-10-12T01:24:59;10.10;;;5.20;;
3297;SDS011;1661;53.572;10.174;2022-10-12T01:27:38;6.57;;;5.33;;
3297;SDS011;1661;53.572;10.174;2022-10-12T01:30:22;7.60;;;4.70;;
3297;SDS011;1661;53.572;10.174;2022-10-12T01:33:01;17.63;;;4.50;;
3297;SDS011;1661;53.572;10.174;2022-10-12T01:35:36;7.10;;;5.40;;
3297;SDS011;1661;53.572;10.174;2022-10-12T01:38:11;6.97;;;4.23;;
3297;SDS011;1661;53.572;10.174;2022-10-12T01:40:48;5.93;;;4.70;;
3297;SDS011;1661;53.572;10.174;2022-10-12T01:43:20;6.73;;;4.40;;
3297;SDS011;1661;53.572;10.174;2022-10-12T01:45:49;8.90;;;4.67;;
3297;SDS011;1661;53.572;10.174;2022-10-12T01:48:16;8.43;;;5.50;;
3297;SDS011;1661;53.572;10.174;2022-10-12T01:50:47;6.10;;;5.50;;
3297;SDS011;1661;53.572;10.174;2022-10-12T01:53:18;7.50;;;5.80;;
3297;SDS011;1661;53.572;10.174;2022-10-12T01:55:54;12.67;;;7.10;;
3297;SDS011;1661;53.572;10.174;2022-10-12T01:58:30;13.57;;;5.83;;
3297;SDS011;1661;53.572;10.174;2022-10-12T02:01:04;7.70;;;5.87;;
3297;SDS011;1661;53.572;10.174;2022-10-12T02:03:39;6.40;;;5.10;;
3297;SDS011;1661;53.572;10.174;2022-10-12T02:06:13;7.83;;;3.90;;
3297;SDS011;1661;53.572;10.174;2022-10-12T02:08:44;28.50;;;5.83;;
3297;SDS011;1661;53.572;10.174;2022-10-12T02:11:15;7.43;;;4.53;;
3297;SDS011;1661;53.572;10.174;2022-10-12T02:13:43;7.67;;;5.00;;
3297;SDS011;1661;53.572;10.174;2022-10-12T02:16:14;4.73;;;4.33;;
3297;SDS011;1661;53.572;10.174;2022-10-12T02:18:46;11.50;;;6.00;;
3297;SDS011;1661;53.572;10.174;2022-10-12T02:21:17;7.10;;;3.80;;
3297;SDS011;1661;53.572;10.174;2022-10-12T02:23:46;6.50;;;4.80;;
3297;SDS011;1661;53.572;10.174;2022-10-12T02:26:15;9.73;;;5.80;;
3297;SDS011;1661;53.572;10.174;2022-10-12T02:28:44;12.20;;;7.00;;
3297;SDS011;1661;53.572;10.174;2022-10-12T02:31:16;10.53;;;6.07;;
3297;SDS011;1661;53.572;10.174;2022-10-12T02:33:50;11.33;;;6.30;;
3297;SDS011;1661;53.572;10.174;2022-10-12T02:36:24;7.03;;;5.70;;
3297;SDS011;1661;53.572;10.174;2022-10-12T02:38:58;15.03;;;7.53;;
3297;SDS011;1661;53.572;10.174;2022-10-12T02:41:32;12.50;;;5.90;;
3297;SDS011;1661;53.572;10.174;2022-10-12T02:44:03;12.50;;;6.27;;
3297;SDS011;1661;53.572;10.174;2022-10-12T02:46:35;11.10;;;6.80;;
3297;SDS011;1661;53.572;10.174;2022-10-12T02:49:03;10.73;;;5.33;;
3297;SDS011;1661;53.572;10.174;2022-10-12T02:51:31;11.57;;;5.10;;
3297;SDS011;1661;53.572;10.174;2022-10-12T02:53:59;11.03;;;6.50;;
3297;SDS011;1661;53.572;10.174;2022-10-12T02:56:27;9.60;;;6.43;;
3297;SDS011;1661;53.572;10.174;2022-10-12T02:58:54;13.17;;;6.40;;
3297;SDS011;1661;53.572;10.174;2022-10-12T03:01:20;8.90;;;5.80;;
3297;SDS011;1661;53.572;10.174;2022-10-12T03:03:48;13.67;;;6.80;;
3297;SDS011;1661;53.572;10.174;2022-10-12T03:06:15;10.13;;;7.47;;
3297;SDS011;1661;53.572;10.174;2022-10-12T03:08:44;11.90;;;7.60;;
3297;SDS011;1661;53.572;10.174;2022-10-12T03:11:11;7.60;;;5.67;;
3297;SDS011;1661;53.572;10.174;2022-10-12T03:13:38;13.00;;;6.50;;
3297;SDS011;1661;53.572;10.174;2022-10-12T03:16:05;14.23;;;6.10;;
3297;SDS011;1661;53.572;10.174;2022-10-12T03:18:34;9.10;;;4.73;;
3297;SDS011;1661;53.572;10.174;2022-10-12T03:21:03;14.60;;;6.80;;
3297;SDS011;1661;53.572;10.174;2022-10-12T03:23:30;14.20;;;5.80;;
3297;SDS011;1661;53.572;10.174;2022-10-12T03:25:57;11.93;;;5.67;;
3297;SDS011;1661;53.572;10.174;2022-10-12T03:28:24;11.77;;;6.07;;
3297;SDS011;1661;53.572;10.174;2022-10-12T03:30:51;11.43;;;7.57;;
3297;SDS011;1661;53.572;10.174;2022-10-12T03:33:18;5.17;;;4.37;;
3297;SDS011;1661;53.572;10.174;2022-10-12T03:35:45;4.70;;;4.20;;
3297;SDS011;1661;53.572;10.174;2022-10-12T03:38:13;7.70;;;3.90;;
3297;SDS011;1661;53.572;10.174;2022-10-12T03:40:40;7.73;;;4.50;;
3297;SDS011;1661;53.572;10.174;2022-10-12T03:43:08;13.70;;;5.33;;
3297;SDS011;1661;53.572;10.174;2022-10-12T03:45:35;6.90;;;4.20;;
3297;SDS011;1661;53.572;10.174;2022-10-12T03:48:02;17.67;;;5.67;;
3297;SDS011;1661;53.572;10.174;2022-10-12T03:50:32;16.00;;;5.23;;
3297;SDS011;1661;53.572;10.174;2022-10-12T03:53:00;12.90;;;5.50;;
3297;SDS011;1661;53.572;10.174;2022-10-12T03:55:29;9.07;;;4.07;;
3297;SDS011;1661;53.572;10.174;2022-10-12T03:57:55;7.40;;;5.37;;
3297;SDS011;1661;53.572;10.174;2022-10-12T04:00:22;17.40;;;5.70;;
3297;SDS011;1661;53.572;10.174;2022-10-12T04:02:49;11.70;;;4.93;;
3297;SDS011;1661;53.572;10.174;2022-10-12T04:05:16;8.50;;;4.80;;
3297;SDS011;1661;53.572;10.174;2022-10-12T04:07:43;10.67;;;4.83;;
3297;SDS011;1661;53.572;10.174;2022-10-12T04:10:09;14.33;;;5.63;;
3297;SDS011;1661;53.572;10.174;2022-10-12T04:12:37;11.77;;;5.17;;
3297;SDS011;1661;53.572;10.174;2022-10-12T04:15:04;15.67;;;4.40;;
3297;SDS011;1661;53.572;10.174;2022-10-12T04:17:32;8.63;;;4.70;;
3297;SDS011;1661;53.572;10.174;2022-10-12T04:19:58;12.70;;;5.27;;
3297;SDS011;1661;53.572;10.174;2022-10-12T04:22:25;5.17;;;4.40;;
3297;SDS011;1661;53.572;10.174;2022-10-12T04:24:52;14.77;;;6.93;;
3297;SDS011;1661;53.572;10.174;2022-10-12T04:27:19;8.10;;;4.50;;
3297;SDS011;1661;53.572;10.174;2022-10-12T04:29:47;12.53;;;5.03;;
3297;SDS011;1661;53.572;10.174;2022-10-12T04:32:14;10.03;;;5.83;;
3297;SDS011;1661;53.572;10.174;2022-10-12T04:34:40;27.93;;;5.90;;
3297;SDS011;1661;53.572;10.174;2022-10-12T04:37:07;12.97;;;5.20;;
3297;SDS011;1661;53.572;10.174;2022-10-12T04:39:34;13.20;;;5.90;;
3297;SDS011;1661;53.572;10.174;2022-10-12T04:42:00;10.93;;;5.10;;
3297;SDS011;1661;53.572;10.174;2022-10-12T04:44:27;15.30;;;5.10;;
3297;SDS011;1661;53.572;10.174;2022-10-12T04:46:55;15.50;;;6.73;;
3297;SDS011;1661;53.572;10.174;2022-10-12T04:49:22;13.87;;;6.23;;
3297;SDS011;1661;53.572;10.174;2022-10-12T04:51:48;12.90;;;6.23;;
3297;SDS011;1661;53.572;10.174;2022-10-12T04:54:15;16.50;;;5.70;;
3297;SDS011;1661;53.572;10.174;2022-10-12T04:56:42;19.90;;;9.63;;
3297;SDS011;1661;53.572;10.174;2022-10-12T04:59:08;25.03;;;11.23;;
3297;SDS011;1661;53.572;10.174;2022-10-12T05:01:35;17.23;;;7.40;;
3297;SDS011;1661;53.572;10.174;2022-10-12T05:04:03;12.70;;;5.53;;
3297;SDS011;1661;53.572;10.174;2022-10-12T05:06:30;15.57;;;7.00;;
3297;SDS011;1661;53.572;10.174;2022-10-12T05:08:56;13.67;;;5.60;;
3297;SDS011;1661;53.572;10.174;2022-10-12T05:11:23;10.53;;;4.60;;
3297;SDS011;1661;53.572;10.174;2022-10-12T05:13:50;9.20;;;5.60;;
3297;SDS011;1661;53.572;10.174;2022-10-12T05:16:17;6.67;;;3.80;;
3297;SDS011;1661;53.572;10.174;2022-10-12T05:18:43;8.10;;;5.23;;
3297;SDS011;1661;53.572;10.174;2022-10-12T05:21:11;10.87;;;5.17;;
3297;SDS011;1661;53.572;10.174;2022-10-12T05:23:38;10.27;;;5.03;;
3297;SDS011;1661;53.572;10.174;2022-10-12T05:26:05;19.13;;;6.13;;
3297;SDS011;1661;53.572;10.174;2022-10-12T05:28:31;20.93;;;6.90;;
3297;SDS011;1661;53.572;10.174;2022-10-12T05:30:58;9.20;;;4.90;;
3297;SDS011;1661;53.572;10.174;2022-10-12T05:33:25;12.23;;;4.73;;
3297;SDS011;1661;53.572;10.174;2022-10-12T05:35:51;8.03;;;4.50;;
3297;SDS011;1661;53.572;10.174;2022-10-12T05:38:19;8.97;;;3.90;;
3297;SDS011;1661;53.572;10.174;2022-10-12T05:40:46;11.70;;;4.60;;
3297;SDS011;1661;53.572;10.174;2022-10-12T05:43:13;7.20;;;4.27;;
3297;SDS011;1661;53.572;10.174;2022-10-12T05:45:39;4.43;;;3.90;;
3297;SDS011;1661;53.572;10.174;2022-10-12T05:48:08;9.67;;;3.80;;
3297;SDS011;1661;53.572;10.174;2022-10-12T05:50:35;7.87;;;3.97;;
3297;SDS011;1661;53.572;10.174;2022-10-12T05:53:01;12.00;;;4.20;;
3297;SDS011;1661;53.572;10.174;2022-10-12T05:55:29;8.50;;;4.67;;
3297;SDS011;1661;53.572;10.174;2022-10-12T05:57:56;8.93;;;4.60;;
3297;SDS011;1661;53.572;10.174;2022-10-12T06:00:23;5.53;;;4.57;;
3297;SDS011;1661;53.572;10.174;2022-10-12T06:02:49;12.10;;;5.00;;
3297;SDS011;1661;53.572;10.174;2022-10-12T06:05:16;13.57;;;6.30;;
3297;SDS011;1661;53.572;10.174;2022-10-12T06:07:43;15.23;;;6.17;;
3297;SDS011;1661;53.572;10.174;2022-10-12T06:10:09;8.70;;;4.70;;
3297;SDS011;1661;53.572;10.174;2022-10-12T06:12:38;13.13;;;6.17;;
3297;SDS011;1661;53.572;10.174;2022-10-12T06:15:05;14.50;;;5.27;;
3297;SDS011;1661;53.572;10.174;2022-10-12T06:17:33;9.80;;;5.60;;
3297;SDS011;1661;53.572;10.174;2022-10-12T06:19:59;6.73;;;5.30;;
3297;SDS011;1661;53.572;10.174;2022-10-12T06:22:26;12.10;;;5.90;;
3297;SDS011;1661;53.572;10.174;2022-10-12T06:24:53;11.03;;;7.30;;
3297;SDS011;1661;53.572;10.174;2022-10-12T06:27:19;9.30;;;6.40;;
3297;SDS011;1661;53.572;10.174;2022-10-12T06:29:47;8.87;;;4.37;;
3297;SDS011;1661;53.572;10.174;2022-10-12T06:32:14;5.53;;;4.23;;
3297;SDS011;1661;53.572;10.174;2022-10-12T06:34:41;9.73;;;4.43;;
3297;SDS011;1661;53.572;10.174;2022-10-12T06:37:07;9.10;;;5.13;;
3297;SDS011;1661;53.572;10.174;2022-10-12T06:39:34;5.27;;;4.40;;
3297;SDS011;1661;53.572;10.174;2022-10-12T06:42:01;8.77;;;5.23;;
3297;SDS011;1661;53.572;10.174;2022-10-12T06:44:27;7.50;;;4.70;;
3297;SDS011;1661;53.572;10.174;2022-10-12T06:46:57;4.33;;;3.93;;
3297;SDS011;1661;53.572;10.174;2022-10-12T06:49:24;8.40;;;4.10;;
3297;SDS011;1661;53.572;10.174;2022-10-12T06:51:51;3.80;;;3.37;;
3297;SDS011;1661;53.572;10.174;2022-10-12T06:54:17;15.07;;;5.77;;
3297;SDS011;1661;53.572;10.174;2022-10-12T06:56:46;12.40;;;5.23;;
3297;SDS011;1661;53.572;10.174;2022-10-12T06:59:13;12.30;;;5.60;;
3297;SDS011;1661;53.572;10.174;2022-10-12T07:01:40;5.90;;;3.93;;
3297;SDS011;1661;53.572;10.174;2022-10-12T07:04:08;12.10;;;5.30;;
3297;SDS011;1661;53.572;10.174;2022-10-12T07:06:36;16.63;;;7.53;;
3297;SDS011;1661;53.572;10.174;2022-10-12T07:09:03;19.23;;;7.10;;
3297;SDS011;1661;53.572;10.174;2022-10-12T07:11:30;12.30;;;6.20;;
3297;SDS011;1661;53.572;10.174;2022-10-12T07:13:56;9.40;;;6.77;;
3297;SDS011;1661;53.572;10.174;2022-10-12T07:16:23;19.90;;;7.00;;
3297;SDS011;1661;53.572;10.174;2022-10-12T07:18:50;22.50;;;7.33;;
3297;SDS011;1661;53.572;10.174;2022-10-12T07:21:18;17.43;;;5.90;;
3297;SDS011;1661;53.572;10.174;2022-10-12T07:23:44;24.07;;;6.80;;
3297;SDS011;1661;53.572;10.174;2022-10-12T07:26:11;13.23;;;5.90;;
3297;SDS011;1661;53.572;10.174;2022-10-12T07:28:38;20.90;;;5.73;;
3297;SDS011;1661;53.572;10.174;2022-10-12T07:31:05;18.73;;;5.33;;
3297;SDS011;1661;53.572;10.174;2022-10-12T07:33:34;14.80;;;5.77;;
3297;SDS011;1661;53.572;10.174;2022-10-12T07:36:02;15.07;;;5.50;;
3297;SDS011;1661;53.572;10.174;2022-10-12T07:38:31;14.43;;;5.43;;
3297;SDS011;1661;53.572;10.174;2022-10-12T07:40:58;7.00;;;5.57;;
3297;SDS011;1661;53.572;10.174;2022-10-12T07:43:26;20.90;;;6.70;;
3297;SDS011;1661;53.572;10.174;2022-10-12T07:45:52;29.83;;;6.93;;
3297;SDS011;1661;53.572;10.174;2022-10-12T07:48:19;20.40;;;5.57;;
3297;SDS011;1661;53.572;10.174;2022-10-12T07:50:47;13.20;;;5.10;;
3297;SDS011;1661;53.572;10.174;2022-10-12T07:53:14;13.03;;;5.83;;
3297;SDS011;1661;53.572;10.174;2022-10-12T07:55:42;18.13;;;5.43;;
3297;SDS011;1661;53.572;10.174;2022-10-12T07:58:09;23.33;;;4.97;;
3297;SDS011;1661;53.572;10.174;2022-10-12T08:00:37;16.10;;;4.30;;
3297;SDS011;1661;53.572;10.174;2022-10-12T08:03:04;10.47;;;5.03;;
3297;SDS011;1661;53.572;10.174;2022-10-12T08:05:31;14.87;;;5.07;;
3297;SDS011;1661;53.572;10.174;2022-10-12T08:07:58;17.10;;;5.50;;
3297;SDS011;1661;53.572;10.174;2022-10-12T08:10:25;19.77;;;5.37;;
3297;SDS011;1661;53.572;10.174;2022-10-12T08:12:53;17.63;;;4.60;;
3297;SDS011;1661;53.572;10.174;2022-10-12T08:15:20;19.27;;;4.53;;
3297;SDS011;1661;53.572;10.174;2022-10-12T08:17:46;15.30;;;4.23;;
3297;SDS011;1661;53.572;10.174;2022-10-12T08:20:13;18.50;;;4.63;;
3297;SDS011;1661;53.572;10.174;2022-10-12T08:22:40;20.10;;;4.63;;
3297;SDS011;1661;53.572;10.174;2022-10-12T08:25:07;11.13;;;4.33;;
3297;SDS011;1661;53.572;10.174;2022-10-12T08:27:34;10.80;;;3.60;;
3297;SDS011;1661;53.572;10.174;2022-10-12T08:30:04;11.00;;;5.57;;
3297;SDS011;1661;53.572;10.174;2022-10-12T08:32:31;10.47;;;4.03;;
3297;SDS011;1661;53.572;10.174;2022-10-12T08:34:58;23.50;;;4.80;;
3297;SDS011;1661;53.572;10.174;2022-10-12T08:37:25;8.80;;;4.37;;
3297;SDS011;1661;53.572;10.174;2022-10-12T08:39:52;25.17;;;4.50;;
3297;SDS011;1661;53.572;10.174;2022-10-12T08:42:22;11.33;;;4.53;;
3297;SDS011;1661;53.572;10.174;2022-10-12T08:45:05;13.03;;;4.87;;
3297;SDS011;1661;53.572;10.174;2022-10-12T08:47:43;13.00;;;4.20;;
3297;SDS011;1661;53.572;10.174;2022-10-12T08:50:13;21.60;;;4.03;;
3297;SDS011;1661;53.572;10.174;2022-10-12T08:52:47;11.20;;;4.80;;
3297;SDS011;1661;53.572;10.174;2022-10-12T08:55:19;7.73;;;3.93;;
3297;SDS011;1661;53.572;10.174;2022-10-12T08:57:51;14.00;;;4.10;;
3297;SDS011;1661;53.572;10.174;2022-10-12T09:00:19;12.70;;;4.17;;
3297;SDS011;1661;53.572;10.174;2022-10-12T09:02:48;17.37;;;3.70;;
3297;SDS011;1661;53.572;10.174;2022-10-12T09:05:28;18.20;;;4.30;;
3297;SDS011;1661;53.572;10.174;2022-10-12T09:08:02;16.60;;;3.80;;
3297;SDS011;1661;53.572;10.174;2022-10-12T09:10:35;16.63;;;3.80;;
3297;SDS011;1661;53.572;10.174;2022-10-12T09:13:12;13.30;;;4.57;;
3297;SDS011;1661;53.572;10.174;2022-10-12T09:15:49;20.07;;;3.70;;
3297;SDS011;1661;53.572;10.174;2022-10-12T09:18:19;10.70;;;3.60;;
3297;SDS011;1661;53.572;10.174;2022-10-12T09:20:48;20.63;;;4.33;;
3297;SDS011;1661;53.572;10.174;2022-10-12T09:23:22;10.83;;;4.00;;
3297;SDS011;1661;53.572;10.174;2022-10-12T09:25:50;21.67;;;4.67;;
3297;SDS011;1661;53.572;10.174;2022-10-12T09:28:20;11.83;;;3.50;;
3297;SDS011;1661;53.572;10.174;2022-10-12T09:30:58;16.23;;;4.17;;
3297;SDS011;1661;53.572;10.174;2022-10-12T09:33:32;10.03;;;3.70;;
3297;SDS011;1661;53.572;10.174;2022-10-12T09:36:05;14.90;;;4.37;;
3297;SDS011;1661;53.572;10.174;2022-10-12T09:38:35;10.67;;;4.20;;
3297;SDS011;1661;53.572;10.174;2022-10-12T09:41:02;15.00;;;3.93;;
3297;SDS011;1661;53.572;10.174;2022-10-12T09:43:30;36.60;;;4.23;;
3297;SDS011;1661;53.572;10.174;2022-10-12T09:45:59;14.70;;;3.87;;
3297;SDS011;1661;53.572;10.174;2022-10-12T09:48:30;12.63;;;4.07;;
3297;SDS011;1661;53.572;10.174;2022-10-12T09:50:57;16.57;;;3.63;;
3297;SDS011;1661;53.572;10.174;2022-10-12T09:53:28;11.70;;;3.30;;
3297;SDS011;1661;53.572;10.174;2022-10-12T09:55:59;12.83;;;3.50;;
3297;SDS011;1661;53.572;10.174;2022-10-12T09:58:28;11.93;;;3.30;;
3297;SDS011;1661;53.572;10.174;2022-10-12T10:01:16;10.33;;;4.23;;
3297;SDS011;1661;53.572;10.174;2022-10-12T10:03:48;9.40;;;3.70;;
3297;SDS011;1661;53.572;10.174;2022-10-12T10:06:30;12.17;;;3.97;;
3297;SDS011;1661;53.572;10.174;2022-10-12T10:08:57;15.53;;;4.33;;
3297;SDS011;1661;53.572;10.174;2022-10-12T10:11:25;17.73;;;3.53;;
3297;SDS011;1661;53.572;10.174;2022-10-12T10:13:54;27.73;;;3.83;;
3297;SDS011;1661;53.572;10.174;2022-10-12T10:16:25;9.90;;;3.20;;
3297;SDS011;1661;53.572;10.174;2022-10-12T10:18:54;6.60;;;3.60;;
3297;SDS011;1661;53.572;10.174;2022-10-12T10:21:23;12.10;;;2.90;;
3297;SDS011;1661;53.572;10.174;2022-10-12T10:23:54;14.50;;;3.40;;
3297;SDS011;1661;53.572;10.174;2022-10-12T10:26:22;11.47;;;4.40;;
3297;SDS011;1661;53.572;10.174;2022-10-12T10:28:53;10.90;;;3.70;;
3297;SDS011;1661;53.572;10.174;2022-10-12T10:31:23;8.50;;;3.17;;
3297;SDS011;1661;53.572;10.174;2022-10-12T10:34:10;9.03;;;3.70;;
3297;SDS011;1661;53.572;10.174;2022-10-12T10:36:39;17.20;;;4.10;;
3297;SDS011;1661;53.572;10.174;2022-10-12T10:39:15;9.13;;;3.80;;
3297;SDS011;1661;53.572;10.174;2022-10-12T10:41:45;15.90;;;3.90;;
3297;SDS011;1661;53.572;10.174;2022-10-12T10:44:22;13.30;;;3.90;;
3297;SDS011;1661;53.572;10.174;2022-10-12T10:46:52;12.90;;;3.23;;
3297;SDS011;1661;53.572;10.174;2022-10-12T10:49:23;17.40;;;4.30;;
3297;SDS011;1661;53.572;10.174;2022-10-12T10:51:53;11.60;;;3.30;;
3297;SDS011;1661;53.572;10.174;2022-10-12T10:54:26;12.50;;;3.50;;
3297;SDS011;1661;53.572;10.174;2022-10-12T10:56:56;11.20;;;3.07;;
3297;SDS011;1661;53.572;10.174;2022-10-12T10:59:34;12.70;;;5.73;;
3297;SDS011;1661;53.572;10.174;2022-10-12T11:02:22;10.47;;;3.03;;
3297;SDS011;1661;53.572;10.174;2022-10-12T11:04:55;9.70;;;3.20;;
3297;SDS011;1661;53.572;10.174;2022-10-12T11:07:29;17.63;;;3.10;;
3297;SDS011;1661;53.572;10.174;2022-10-12T11:10:02;9.83;;;3.97;;
3297;SDS011;1661;53.572;10.174;2022-10-12T11:12:34;16.60;;;3.17;;
3297;SDS011;1661;53.572;10.174;2022-10-12T11:15:06;9.13;;;3.57;;
3297;SDS011;1661;53.572;10.174;2022-10-12T11:17:44;18.33;;;4.50;;
3297;SDS011;1661;53.572;10.174;2022-10-12T11:20:22;8.20;;;2.83;;
3297;SDS011;1661;53.572;10.174;2022-10-12T11:22:56;11.10;;;3.60;;
3297;SDS011;1661;53.572;10.174;2022-10-12T11:25:28;12.43;;;3.13;;
3297;SDS011;1661;53.572;10.174;2022-10-12T11:27:59;8.63;;;2.63;;
3297;SDS011;1661;53.572;10.174;2022-10-12T11:30:27;11.63;;;2.57;;
3297;SDS011;1661;53.572;10.174;2022-10-12T11:33:05;14.97;;;3.70;;
3297;SDS011;1661;53.572;10.174;2022-10-12T11:35:36;13.67;;;3.77;;
3297;SDS011;1661;53.572;10.174;2022-10-12T11:38:08;9.40;;;3.47;;
3297;SDS011;1661;53.572;10.174;2022-10-12T11:40:43;15.97;;;2.70;;
3297;SDS011;1661;53.572;10.174;2022-10-12T11:43:16;9.07;;;2.33;;
3297;SDS011;1661;53.572;10.174;2022-10-12T11:45:46;7.40;;;2.90;;
3297;SDS011;1661;53.572;10.174;2022-10-12T11:48:19;6.77;;;2.60;;
3297;SDS011;1661;53.572;10.174;2022-10-12T11:50:49;22.13;;;2.80;;
3297;SDS011;1661;53.572;10.174;2022-10-12T11:53:18;11.80;;;3.17;;
3297;SDS011;1661;53.572;10.174;2022-10-12T11:55:54;17.50;;;3.67;;
3297;SDS011;1661;53.572;10.174;2022-10-12T11:58:30;6.20;;;1.93;;
3297;SDS011;1661;53.572;10.174;2022-10-12T12:01:13;10.60;;;3.40;;
3297;SDS011;1661;53.572;10.174;2022-10-12T12:06:53;7.70;;;2.97;;
3297;SDS011;1661;53.572;10.174;2022-10-12T12:09:33;13.70;;;2.93;;
3297;SDS011;1661;53.572;10.174;2022-10-12T12:12:09;8.33;;;2.13;;
3297;SDS011;1661;53.572;10.174;2022-10-12T12:14:49;11.07;;;2.93;;
3297;SDS011;1661;53.572;10.174;2022-10-12T12:17:26;11.90;;;3.70;;
3297;SDS011;1661;53.572;10.174;2022-10-12T12:19:55;9.97;;;2.97;;
3297;SDS011;1661;53.572;10.174;2022-10-12T12:22:24;10.87;;;2.63;;
3297;SDS011;1661;53.572;10.174;2022-10-12T12:25:16;10.20;;;3.43;;
3297;SDS011;1661;53.572;10.174;2022-10-12T12:27:57;9.93;;;4.40;;
3297;SDS011;1661;53.572;10.174;2022-10-12T12:30:31;7.53;;;2.83;;
3297;SDS011;1661;53.572;10.174;2022-10-12T12:33:01;8.00;;;3.10;;
3297;SDS011;1661;53.572;10.174;2022-10-12T12:35:35;8.53;;;3.10;;
3297;SDS011;1661;53.572;10.174;2022-10-12T12:38:13;7.00;;;2.00;;
3297;SDS011;1661;53.572;10.174;2022-10-12T12:40:53;5.33;;;2.30;;
3297;SDS011;1661;53.572;10.174;2022-10-12T12:43:37;5.03;;;2.10;;
3297;SDS011;1661;53.572;10.174;2022-10-12T12:46:21;11.70;;;2.67;;
3297;SDS011;1661;53.572;10.174;2022-10-12T12:48:56;10.40;;;2.83;;
3297;SDS011;1661;53.572;10.174;2022-10-12T12:54:17;10.50;;;3.30;;
3297;SDS011;1661;53.572;10.174;2022-10-12T12:57:02;13.50;;;3.77;;
3297;SDS011;1661;53.572;10.174;2022-10-12T12:59:46;6.40;;;2.33;;
3297;SDS011;1661;53.572;10.174;2022-10-12T13:02:44;8.53;;;2.70;;
3297;SDS011;1661;53.572;10.174;2022-10-12T13:05:25;6.80;;;2.50;;
3297;SDS011;1661;53.572;10.174;2022-10-12T13:08:22;24.03;;;2.77;;
3297;SDS011;1661;53.572;10.174;2022-10-12T13:11:01;8.00;;;2.73;;
3297;SDS011;1661;53.572;10.174;2022-10-12T13:13:49;18.37;;;3.80;;
3297;SDS011;1661;53.572;10.174;2022-10-12T13:19:19;14.23;;;2.93;;
3297;SDS011;1661;53.572;10.174;2022-10-12T13:21:47;13.63;;;3.47;;
3297;SDS011;1661;53.572;10.174;2022-10-12T13:24:19;12.37;;;3.53;;
3297;SDS011;1661;53.572;10.174;2022-10-12T13:26:49;12.73;;;3.30;;
3297;SDS011;1661;53.572;10.174;2022-10-12T13:29:20;16.87;;;2.90;;
3297;SDS011;1661;53.572;10.174;2022-10-12T13:31:56;8.30;;;3.13;;
3297;SDS011;1661;53.572;10.174;2022-10-12T13:34:26;8.43;;;2.97;;
3297;SDS011;1661;53.572;10.174;2022-10-12T13:37:01;9.73;;;2.67;;
3297;SDS011;1661;53.572;10.174;2022-10-12T13:39:34;10.77;;;2.70;;
3297;SDS011;1661;53.572;10.174;2022-10-12T13:42:03;11.33;;;3.60;;
3297;SDS011;1661;53.572;10.174;2022-10-12T13:44:31;7.47;;;2.70;;
3297;SDS011;1661;53.572;10.174;2022-10-12T13:47:01;5.77;;;2.70;;
3297;SDS011;1661;53.572;10.174;2022-10-12T13:49:30;9.40;;;2.60;;
3297;SDS011;1661;53.572;10.174;2022-10-12T13:51:59;6.60;;;2.33;;
3297;SDS011;1661;53.572;10.174;2022-10-12T13:54:35;9.70;;;2.50;;
3297;SDS011;1661;53.572;10.174;2022-10-12T13:57:04;14.67;;;3.10;;
3297;SDS011;1661;53.572;10.174;2022-10-12T13:59:38;12.40;;;2.90;;
3297;SDS011;1661;53.572;10.174;2022-10-12T14:02:14;5.67;;;2.80;;
3297;SDS011;1661;53.572;10.174;2022-10-12T14:04:43;16.57;;;3.20;;
3297;SDS011;1661;53.572;10.174;2022-10-12T14:07:12;8.10;;;2.70;;
3297;SDS011;1661;53.572;10.174;2022-10-12T14:09:44;14.83;;;2.90;;
3297;SDS011;1661;53.572;10.174;2022-10-12T14:12:13;15.10;;;2.70;;
3297;SDS011;1661;53.572;10.174;2022-10-12T14:14:41;8.73;;;3.00;;
3297;SDS011;1661;53.572;10.174;2022-10-12T14:17:12;12.00;;;3.07;;
3297;SDS011;1661;53.572;10.174;2022-10-12T14:19:41;11.13;;;3.27;;
3297;SDS011;1661;53.572;10.174;2022-10-12T14:22:10;5.63;;;1.97;;
3297;SDS011;1661;53.572;10.174;2022-10-12T14:24:45;3.90;;;2.60;;
3297;SDS011;1661;53.572;10.174;2022-10-12T14:27:18;11.10;;;3.30;;
3297;SDS011;1661;53.572;10.174;2022-10-12T14:29:47;7.33;;;2.60;;
3297;SDS011;1661;53.572;10.174;2022-10-12T14:32:36;5.50;;;2.60;;
3297;SDS011;1661;53.572;10.174;2022-10-12T14:35:10;9.23;;;2.40;;
3297;SDS011;1661;53.572;10.174;2022-10-12T14:37:39;6.50;;;2.60;;
3297;SDS011;1661;53.572;10.174;2022-10-12T14:42:56;6.70;;;2.53;;
3297;SDS011;1661;53.572;10.174;2022-10-12T14:45:27;15.57;;;3.20;;
3297;SDS011;1661;53.572;10.174;2022-10-12T14:47:54;6.63;;;2.30;;
3297;SDS011;1661;53.572;10.174;2022-10-12T14:50:21;11.67;;;2.87;;
3297;SDS011;1661;53.572;10.174;2022-10-12T14:52:49;9.40;;;2.83;;
3297;SDS011;1661;53.572;10.174;2022-10-12T14:55:19;11.07;;;2.80;;
3297;SDS011;1661;53.572;10.174;2022-10-12T14:57:49;11.00;;;3.20;;
3297;SDS011;1661;53.572;10.174;2022-10-12T15:00:17;8.57;;;2.97;;
3297;SDS011;1661;53.572;10.174;2022-10-12T15:02:46;15.73;;;3.10;;
3297;SDS011;1661;53.572;10.174;2022-10-12T15:05:15;10.50;;;2.43;;
3297;SDS011;1661;53.572;10.174;2022-10-12T15:07:45;7.47;;;2.70;;
3297;SDS011;1661;53.572;10.174;2022-10-12T15:10:13;13.23;;;2.50;;
3297;SDS011;1661;53.572;10.174;2022-10-12T15:12:40;15.50;;;3.90;;
3297;SDS011;1661;53.572;10.174;2022-10-12T15:15:13;12.60;;;3.43;;
3297;SDS011;1661;53.572;10.174;2022-10-12T15:17:49;14.43;;;3.40;;
3297;SDS011;1661;53.572;10.174;2022-10-12T15:20:15;6.53;;;2.80;;
3297;SDS011;1661;53.572;10.174;2022-10-12T15:22:43;13.73;;;3.47;;